createdAt,value
2022-11-01T00:01:46.076Z,14.3
2022-11-01T00:03:47.124Z,14.3
2022-11-01T00:09:50.515Z,14.5
2022-11-01T00:11:51.644Z,14.6
2022-11-01T00:13:52.746Z,14.7
2022-11-01T00:15:57.062Z,14.8
2022-11-01T00:17:58.206Z,14.8
2022-11-01T00:19:59.316Z,14.9
2022-11-01T00:22:00.436Z,14.9
2022-11-01T00:24:01.553Z,15
2022-11-01T00:26:02.690Z,15.1
2022-11-01T00:28:04.070Z,15.1
2022-11-01T00:30:08.105Z,15.1
2022-11-01T00:32:10.751Z,15.1
2022-11-01T00:34:11.841Z,15.2
2022-11-01T00:36:13.015Z,15.1
2022-11-01T00:38:14.115Z,15.1
2022-11-01T00:40:15.249Z,15.2
2022-11-01T00:42:16.372Z,15.2
2022-11-01T00:44:20.645Z,15.2
2022-11-01T00:46:21.790Z,15.2
2022-11-01T00:48:22.920Z,15.2
2022-11-01T00:52:50.153Z,15.3
2022-11-01T00:54:51.264Z,15.3
2022-11-01T00:56:55.564Z,15.3
2022-11-01T00:58:56.690Z,15.3
2022-11-01T01:00:57.939Z,15.3
2022-11-01T01:02:59.151Z,15.3
2022-11-01T01:05:00.066Z,15.3
2022-11-01T01:07:01.336Z,15.4
2022-11-01T01:09:02.298Z,15.4
2022-11-01T01:11:06.625Z,15.3
2022-11-01T01:13:07.708Z,15.2
2022-11-01T01:15:08.829Z,15.2
2022-11-01T01:17:09.976Z,15.3
2022-11-01T01:19:11.080Z,15.4
2022-11-01T01:21:12.217Z,15.4
2022-11-01T01:23:13.345Z,15.3
2022-11-01T01:25:17.645Z,15.4
2022-11-01T01:27:18.776Z,15.4
2022-11-01T01:29:19.898Z,15.5
2022-11-01T01:31:20.999Z,15.5
2022-11-01T01:33:22.131Z,15.5
2022-11-01T01:35:23.241Z,15.4
2022-11-01T01:37:24.373Z,15.4
2022-11-01T01:39:28.687Z,15.5
2022-11-01T01:43:30.965Z,15.4
2022-11-01T01:44:33.082Z,15.4
2022-11-01T01:46:34.212Z,15.5
2022-11-01T01:48:35.349Z,15.5
2022-11-01T01:56:43.074Z,15.5
2022-11-01T01:58:44.183Z,15.5
2022-11-01T02:00:45.375Z,15.5
2022-11-01T02:02:46.436Z,15.5
2022-11-01T02:04:47.558Z,15.5
2022-11-01T02:06:51.868Z,15.6
2022-11-01T02:08:52.991Z,15.7
2022-11-01T02:10:54.097Z,15.7
2022-11-01T02:12:55.240Z,15.8
2022-11-01T02:14:56.358Z,15.8
2022-11-01T02:16:57.460Z,15.8
2022-11-01T02:18:58.611Z,15.7
2022-11-01T02:21:02.949Z,15.7
2022-11-01T02:23:04.514Z,15.7
2022-11-01T02:25:05.210Z,15.7
2022-11-01T02:27:06.299Z,15.7
2022-11-01T02:29:07.422Z,15.8
2022-11-01T02:31:08.528Z,15.8
2022-11-01T02:33:09.653Z,15.9
2022-11-01T02:35:13.991Z,15.9
2022-11-01T02:37:15.106Z,15.9
2022-11-01T02:39:16.203Z,15.9
2022-11-01T02:40:18.339Z,15.8
2022-11-01T02:42:19.462Z,15.8
2022-11-01T02:44:20.571Z,15.8
2022-11-01T02:46:21.708Z,15.8
2022-11-01T02:48:25.986Z,15.7
2022-11-01T02:50:27.135Z,15.7
2022-11-01T02:52:28.241Z,15.8
2022-11-01T02:54:29.355Z,15.7
2022-11-01T02:56:30.472Z,15.7
2022-11-01T02:58:31.598Z,15.7
2022-11-01T03:00:32.730Z,15.9
2022-11-01T03:02:37.019Z,15.8
2022-11-01T03:04:38.120Z,15.8
2022-11-01T03:06:39.238Z,15.8
2022-11-01T03:08:40.388Z,15.8
2022-11-01T03:10:41.510Z,15.9
2022-11-01T03:12:42.634Z,15.9
2022-11-01T03:14:43.762Z,15.9
2022-11-01T03:16:48.041Z,15.9
2022-11-01T03:18:49.174Z,15.9
2022-11-01T03:20:50.290Z,15.9
2022-11-01T03:22:51.392Z,15.9
2022-11-01T03:24:52.534Z,16
2022-11-01T03:26:53.646Z,16
2022-11-01T03:30:59.051Z,16.1
2022-11-01T03:33:00.664Z,16.1
2022-11-01T03:35:01.284Z,16.1
2022-11-01T03:36:03.424Z,16.2
2022-11-01T03:38:04.561Z,16.3
2022-11-01T03:40:05.681Z,16.2
2022-11-01T03:42:06.792Z,16.2
2022-11-01T03:44:11.076Z,16.1
2022-11-01T03:46:12.208Z,16.1
2022-11-01T03:48:13.310Z,16.1
2022-11-01T03:50:14.442Z,16.2
2022-11-01T03:52:15.563Z,16.3
2022-11-01T03:54:16.718Z,16.3
2022-11-01T03:56:17.822Z,16.3
2022-11-01T03:58:22.109Z,16.3
2022-11-01T04:00:23.245Z,16.3
2022-11-01T04:08:27.671Z,16.4
2022-11-01T04:10:28.807Z,16.4
2022-11-01T04:12:33.104Z,16.4
2022-11-01T04:14:34.200Z,16.4
2022-11-01T04:16:35.334Z,16.5
2022-11-01T04:18:36.498Z,16.5
2022-11-01T04:20:37.550Z,16.5
2022-11-01T04:26:44.086Z,16.6
2022-11-01T04:28:45.175Z,16.6
2022-11-01T04:30:46.287Z,16.6
2022-11-01T04:37:16.508Z,16.6
2022-11-01T04:39:20.800Z,16.5
2022-11-01T04:41:21.923Z,16.4
2022-11-01T04:43:23.047Z,16.4
2022-11-01T04:45:24.174Z,16.4
2022-11-01T04:47:25.265Z,16.4
2022-11-01T04:49:26.381Z,16.4
2022-11-01T04:51:27.569Z,16.4
2022-11-01T04:53:31.786Z,16.2
2022-11-01T04:55:32.906Z,16.2
2022-11-01T04:57:34.023Z,16.1
2022-11-01T04:59:35.145Z,16
2022-11-01T05:01:36.319Z,16
2022-11-01T05:03:37.363Z,15.9
2022-11-01T05:05:38.477Z,15.8
2022-11-01T05:07:42.788Z,15.7
2022-11-01T05:09:43.883Z,15.7
2022-11-01T05:11:45.001Z,15.7
2022-11-01T05:13:46.108Z,15.7
2022-11-01T05:15:59.721Z,15.6
2022-11-01T05:17:48.333Z,15.6
2022-11-01T05:19:49.464Z,15.5
2022-11-01T05:21:53.746Z,15.4
2022-11-01T05:23:54.857Z,15.3
2022-11-01T05:25:55.974Z,15.3
2022-11-01T05:26:58.125Z,15.3
2022-11-01T05:29:02.251Z,15.3
2022-11-01T05:31:00.356Z,15.2
2022-11-01T05:33:01.517Z,15.1
2022-11-01T05:35:05.786Z,15.1
2022-11-01T05:37:06.922Z,15.1
2022-11-01T05:39:08.030Z,15.1
2022-11-01T05:41:09.217Z,15
2022-11-01T05:43:10.290Z,15.1
2022-11-01T05:47:17.208Z,14.9
2022-11-01T05:49:16.848Z,14.9
2022-11-01T05:51:17.965Z,14.8
2022-11-01T05:53:19.100Z,14.8
2022-11-01T05:55:20.234Z,14.8
2022-11-01T06:03:27.922Z,14.6
2022-11-01T06:05:29.048Z,14.5
2022-11-01T06:13:33.531Z,14.5
2022-11-01T06:15:37.284Z,14.5
2022-11-01T06:19:40.086Z,14.4
2022-11-01T06:21:42.744Z,14.4
2022-11-01T06:22:44.844Z,14.4
2022-11-01T06:26:47.100Z,14.4
2022-11-01T06:30:52.612Z,14.3
2022-11-01T06:32:53.652Z,14.3
2022-11-01T06:34:54.789Z,14.2
2022-11-01T06:36:55.922Z,14.2
2022-11-01T06:38:57.497Z,14.2
2022-11-01T06:40:58.184Z,14.2
2022-11-01T06:42:59.723Z,14.1
2022-11-01T06:45:03.749Z,14.1
2022-11-01T06:47:04.894Z,14.1
2022-11-01T06:49:06.017Z,14.1
2022-11-01T06:51:07.142Z,14.1
2022-11-01T06:53:08.278Z,14
2022-11-01T06:55:09.447Z,14
2022-11-01T06:57:10.565Z,14
2022-11-01T06:59:14.877Z,14
2022-11-01T07:01:16.183Z,14
2022-11-01T07:03:17.237Z,14
2022-11-01T07:05:18.544Z,14
2022-11-01T07:07:19.524Z,14
2022-11-01T07:09:20.687Z,14
2022-11-01T07:11:21.913Z,14
2022-11-01T07:13:26.222Z,13.9
2022-11-01T07:15:27.355Z,13.9
2022-11-01T07:17:28.490Z,14
2022-11-01T07:20:31.913Z,14
2022-11-01T07:22:33.025Z,14.1
2022-11-01T07:24:34.165Z,14.2
2022-11-01T07:26:38.435Z,14.2
2022-11-01T07:30:40.771Z,14
2022-11-01T07:32:41.988Z,14.1
2022-11-01T07:34:43.112Z,14.1
2022-11-01T07:36:44.250Z,14.1
2022-11-01T07:38:45.376Z,14.1
2022-11-01T07:40:49.735Z,14.2
2022-11-01T07:42:50.835Z,14.2
2022-11-01T07:44:51.982Z,14.2
2022-11-01T07:46:53.099Z,14.3
2022-11-01T07:48:54.226Z,14.3
2022-11-01T07:50:55.352Z,14.3
2022-11-01T07:52:56.492Z,14.3
2022-11-01T07:55:00.822Z,14.3
2022-11-01T07:57:01.955Z,14.3
2022-11-01T07:59:03.087Z,14.3
2022-11-01T08:01:04.328Z,14.4
2022-11-01T08:03:05.665Z,14.4
2022-11-01T08:05:06.475Z,14.4
2022-11-01T08:07:07.637Z,14.5
2022-11-01T08:09:11.938Z,14.5
2022-11-01T08:11:13.087Z,14.4
2022-11-01T08:13:14.227Z,14.4
2022-11-01T08:19:44.531Z,14.5
2022-11-01T08:23:49.990Z,14.5
2022-11-01T08:25:51.248Z,14.5
2022-11-01T08:27:52.238Z,14.6
2022-11-01T08:29:53.372Z,14.6
2022-11-01T08:31:54.489Z,14.7
2022-11-01T08:33:55.650Z,14.7
2022-11-01T08:35:59.942Z,14.7
2022-11-01T08:38:01.076Z,14.7
2022-11-01T08:40:02.235Z,14.9
2022-11-01T08:42:03.332Z,14.9
2022-11-01T08:44:04.495Z,14.9
2022-11-01T08:46:05.587Z,15
2022-11-01T08:48:06.726Z,15
2022-11-01T08:50:11.490Z,15.1
2022-11-01T08:52:12.138Z,15.1
2022-11-01T08:54:13.272Z,15
2022-11-01T08:56:14.391Z,14.9
2022-11-01T08:58:15.514Z,15
2022-11-01T09:00:16.643Z,14.9
2022-11-01T09:02:17.997Z,15.1
2022-11-01T09:04:22.075Z,15.2
2022-11-01T09:06:23.209Z,15.4
2022-11-01T09:08:24.354Z,15.1
2022-11-01T09:09:26.502Z,15
2022-11-01T09:13:28.752Z,17.2
2022-11-01T09:15:29.877Z,17.6
2022-11-01T09:17:34.184Z,18.3
2022-11-01T09:19:35.314Z,18.5
2022-11-01T09:21:36.438Z,18.7
2022-11-01T09:23:37.556Z,18.8
2022-11-01T09:25:38.680Z,17.8
2022-11-01T09:27:39.790Z,16.3
2022-11-01T09:29:40.914Z,15.9
2022-11-01T09:31:45.227Z,16.4
2022-11-01T09:33:46.348Z,16.5
2022-11-01T09:35:50.349Z,18.2
2022-11-01T09:37:48.597Z,18.3
2022-11-01T09:43:51.962Z,15.8
2022-11-01T09:45:56.432Z,15.6
2022-11-01T09:47:57.384Z,15.9
2022-11-01T09:49:58.486Z,16.5
2022-11-01T09:51:59.614Z,16.5
2022-11-01T09:54:00.732Z,18.2
2022-11-01T09:56:01.870Z,18.8
2022-11-01T09:58:03.223Z,19.8
2022-11-01T10:00:07.254Z,20.4
2022-11-01T10:02:10.055Z,19.8
2022-11-01T10:04:09.503Z,19.5
2022-11-01T10:05:14.471Z,19.9
2022-11-01T10:07:12.734Z,19.9
2022-11-01T10:09:13.835Z,20.1
2022-11-01T10:11:14.939Z,20.5
2022-11-01T10:13:19.235Z,19.8
2022-11-01T10:15:20.352Z,20
2022-11-01T10:17:21.471Z,18.6
2022-11-01T10:19:22.555Z,19.8
2022-11-01T10:21:25.904Z,19.6
2022-11-01T10:23:24.754Z,19
2022-11-01T10:25:25.869Z,19.8
2022-11-01T10:27:34.559Z,18.8
2022-11-01T10:29:31.261Z,18.9
2022-11-01T10:31:32.364Z,19.7
2022-11-01T10:33:33.456Z,19.6
2022-11-01T10:35:34.554Z,19.1
2022-11-01T10:37:35.642Z,19.9
2022-11-01T10:39:54.191Z,20.5
2022-11-01T10:41:41.016Z,19.3
2022-11-01T10:45:47.414Z,20.9
2022-11-01T10:55:51.881Z,19.9
2022-11-01T10:57:52.966Z,19.3
2022-11-01T10:59:54.068Z,20.1
2022-11-01T11:00:56.247Z,20.1
2022-11-01T11:02:57.311Z,19.4
2022-11-01T11:04:58.408Z,19.3
2022-11-01T11:06:59.545Z,19.6
2022-11-01T11:09:03.822Z,17.7
2022-11-01T11:11:04.911Z,17.1
2022-11-01T11:13:06.180Z,16.7
2022-11-01T11:15:07.113Z,16.6
2022-11-01T11:17:08.195Z,16.5
2022-11-01T11:19:09.353Z,16.8
2022-11-01T11:21:10.408Z,16.6
2022-11-01T11:23:14.716Z,16.6
2022-11-01T11:25:15.797Z,16.5
2022-11-01T11:27:16.895Z,16.6
2022-11-01T11:31:19.089Z,16.7
2022-11-01T11:33:20.191Z,16.7
2022-11-01T11:35:21.301Z,16.7
2022-11-01T11:37:26.227Z,16.8
2022-11-01T11:39:27.333Z,16.8
2022-11-01T11:41:28.438Z,16.9
2022-11-01T11:43:30.166Z,16.9
2022-11-01T11:45:31.267Z,16.8
2022-11-01T11:47:32.373Z,16.9
2022-11-01T11:49:33.452Z,16.9
2022-11-01T11:51:37.750Z,16.8
2022-11-01T11:53:38.856Z,16.8
2022-11-01T11:55:39.960Z,16.9
2022-11-01T12:00:09.047Z,17
2022-11-01T12:06:15.535Z,16.7
2022-11-01T12:08:16.638Z,16.7
2022-11-01T12:10:19.290Z,16.7
2022-11-01T12:12:20.365Z,16.8
2022-11-01T12:14:21.458Z,16.9
2022-11-01T12:16:22.590Z,17
2022-11-01T12:20:27.977Z,17
2022-11-01T12:22:29.073Z,16.9
2022-11-01T12:24:30.177Z,16.9
2022-11-01T12:26:31.264Z,17.2
2022-11-01T12:28:32.378Z,17
2022-11-01T12:30:33.491Z,17.2
2022-11-01T12:32:37.777Z,17
2022-11-01T12:36:39.985Z,17.1
2022-11-01T12:40:42.192Z,16.9
2022-11-01T12:42:43.270Z,17
2022-11-01T12:44:44.365Z,17.1
2022-11-01T12:46:48.657Z,17
2022-11-01T12:48:49.776Z,16.9
2022-11-01T12:51:53.073Z,16.8
2022-11-01T12:53:54.107Z,16.8
2022-11-01T12:55:55.221Z,16.9
2022-11-01T12:57:56.315Z,16.7
2022-11-01T13:00:00.673Z,16.7
2022-11-01T13:02:01.846Z,16.8
2022-11-01T13:04:02.802Z,16.8
2022-11-01T13:06:03.910Z,16.8
2022-11-01T13:08:05.013Z,16.9
2022-11-01T13:10:06.106Z,16.9
2022-11-01T13:12:07.251Z,16.8
2022-11-01T13:14:11.531Z,16.7
2022-11-01T13:16:12.641Z,16.7
2022-11-01T13:22:15.966Z,16.8
2022-11-01T13:26:18.170Z,16.8
2022-11-01T13:28:22.471Z,16.8
2022-11-01T13:30:23.557Z,16.7
2022-11-01T13:34:25.770Z,16.7
2022-11-01T13:36:30.211Z,16.7
2022-11-01T13:38:28.022Z,16.6
2022-11-01T13:40:29.116Z,16.6
2022-11-01T13:46:35.633Z,16.5
2022-11-01T13:47:37.833Z,16.5
2022-11-01T13:49:38.891Z,16.5
2022-11-01T13:51:39.981Z,16.5
2022-11-01T13:53:41.082Z,16.5
2022-11-01T13:55:45.388Z,16.7
2022-11-01T13:57:46.511Z,16.7
2022-11-01T13:59:47.598Z,16.6
2022-11-01T14:01:48.885Z,16.7
2022-11-01T14:03:50.076Z,16.6
2022-11-01T14:05:50.940Z,16.6
2022-11-01T14:07:52.050Z,16.6
2022-11-01T14:09:56.144Z,16.6
2022-11-01T14:11:57.266Z,16.5
2022-11-01T14:13:58.373Z,16.6
2022-11-01T14:15:59.508Z,16.6
2022-11-01T14:18:01.046Z,16.6
2022-11-01T14:20:01.773Z,16.5
2022-11-01T14:22:02.865Z,16.5
2022-11-01T14:24:07.148Z,16.6
2022-11-01T14:26:08.262Z,16.5
2022-11-01T14:28:09.373Z,16.5
2022-11-01T14:30:10.481Z,16.6
2022-11-01T14:32:11.621Z,16.7
2022-11-01T14:34:12.708Z,16.7
2022-11-01T14:36:13.839Z,16.6
2022-11-01T14:38:18.117Z,16.6
2022-11-01T14:40:19.232Z,16.6
2022-11-01T14:42:20.333Z,16.6
2022-11-01T14:47:24.714Z,16.5
2022-11-01T14:49:25.812Z,16.5
2022-11-01T14:51:30.172Z,16.5
2022-11-01T14:53:31.276Z,16.5
2022-11-01T14:55:32.382Z,16.4
2022-11-01T14:57:33.495Z,16.4
2022-11-01T14:59:34.601Z,16.4
2022-11-01T15:01:35.807Z,16.4
2022-11-01T15:03:36.815Z,16.4
2022-11-01T15:05:41.120Z,16.3
2022-11-01T15:07:42.238Z,16.3
2022-11-01T15:09:43.327Z,16.2
2022-11-01T15:11:44.440Z,16.2
2022-11-01T15:13:45.565Z,16.2
2022-11-01T15:15:46.683Z,16.2
2022-11-01T15:17:47.784Z,16.1
2022-11-01T15:19:52.084Z,16.1
2022-11-01T15:25:55.427Z,16
2022-11-01T15:27:56.544Z,16.1
2022-11-01T15:31:58.767Z,15.9
2022-11-01T15:34:03.080Z,15.8
2022-11-01T15:38:05.282Z,15.8
2022-11-01T15:40:33.301Z,15.8
2022-11-01T15:44:35.531Z,15.7
2022-11-01T15:46:39.829Z,15.6
2022-11-01T15:48:40.951Z,15.6
2022-11-01T15:50:42.065Z,15.6
2022-11-01T15:52:43.212Z,15.5
2022-11-01T15:54:44.321Z,15.5
2022-11-01T15:56:45.692Z,15.5
2022-11-01T15:58:46.835Z,15.5
2022-11-01T16:00:51.221Z,15.5
2022-11-01T16:02:52.206Z,15.5
2022-11-01T16:04:53.315Z,15.4
2022-11-01T16:06:54.594Z,15.4
2022-11-01T16:08:55.591Z,15.4
2022-11-01T16:10:56.705Z,15.3
2022-11-01T16:12:57.830Z,15.3
2022-11-01T16:15:02.159Z,15.3
2022-11-01T16:17:03.377Z,15.2
2022-11-01T16:19:04.409Z,15.2
2022-11-01T16:21:05.533Z,15.2
2022-11-01T16:23:06.654Z,15.1
2022-11-01T16:25:07.777Z,15.1
2022-11-01T16:27:08.915Z,15.1
2022-11-01T16:29:13.208Z,15.2
2022-11-01T16:31:14.306Z,15.2
2022-11-01T16:33:15.455Z,15.2
2022-11-01T16:34:17.580Z,15.2
2022-11-01T16:36:18.721Z,15.2
2022-11-01T16:38:19.852Z,15.3
2022-11-01T16:40:20.971Z,15.3
2022-11-01T16:42:25.275Z,15.3
2022-11-01T16:44:26.376Z,15.3
2022-11-01T16:46:27.511Z,15.3
2022-11-01T16:48:28.633Z,15.3
2022-11-01T16:50:29.777Z,15.3
2022-11-01T16:52:30.895Z,15.3
2022-11-01T16:54:32.001Z,15.2
2022-11-01T16:56:37.402Z,15.2
2022-11-01T16:58:37.428Z,15.2
2022-11-01T17:00:38.557Z,15.1
2022-11-01T17:02:39.731Z,15.2
2022-11-01T17:10:47.356Z,15.1
2022-11-01T17:12:48.476Z,15.1
2022-11-01T17:24:58.389Z,15.1
2022-11-01T17:30:02.846Z,15.2
2022-11-01T17:32:03.895Z,15.2
2022-11-01T17:34:05.021Z,15.2
2022-11-01T17:36:06.163Z,15.2
2022-11-01T17:38:10.448Z,15.2
2022-11-01T17:40:11.566Z,15.3
2022-11-01T17:42:12.698Z,15.3
2022-11-01T17:44:13.818Z,15.3
2022-11-01T17:46:14.942Z,15.2
2022-11-01T17:48:16.063Z,15.2
2022-11-01T17:50:17.180Z,15.2
2022-11-01T17:52:21.476Z,15.2
2022-11-01T17:54:22.755Z,15.2
2022-11-01T17:56:23.713Z,15.2
2022-11-01T17:58:24.832Z,15.2
2022-11-01T18:00:27.508Z,15.2
2022-11-01T18:04:35.523Z,15.1
2022-11-01T18:06:33.980Z,15.2
2022-11-01T18:08:35.123Z,15.1
2022-11-01T18:10:36.238Z,15.1
2022-11-01T18:12:37.357Z,15.2
2022-11-01T18:14:38.508Z,15.2
2022-11-01T18:16:39.599Z,15.2
2022-11-01T18:18:40.719Z,15.2
2022-11-01T18:20:45.028Z,15.1
2022-11-01T18:22:46.150Z,15.1
2022-11-01T18:24:47.274Z,15.1
2022-11-01T18:25:49.437Z,15.1
2022-11-01T18:27:50.552Z,15
2022-11-01T18:29:51.736Z,15.1
2022-11-01T18:31:52.834Z,15.1
2022-11-01T18:33:57.141Z,15
2022-11-01T18:35:58.267Z,15
2022-11-01T18:37:59.592Z,15
2022-11-01T18:40:00.503Z,15
2022-11-01T18:44:02.763Z,14.9
2022-11-01T18:46:23.866Z,14.9
2022-11-01T18:48:08.178Z,14.8
2022-11-01T18:50:14.082Z,14.8
2022-11-01T18:52:10.450Z,14.8
2022-11-01T18:54:11.545Z,14.8
2022-11-01T18:56:14.065Z,14.8
2022-11-01T18:58:13.791Z,14.8
2022-11-01T19:00:14.938Z,14.8
2022-11-01T19:02:19.451Z,14.8
2022-11-01T19:04:20.399Z,14.8
2022-11-01T19:06:21.509Z,14.7
2022-11-01T19:08:22.863Z,14.7
2022-11-01T19:10:23.761Z,14.8
2022-11-01T19:12:28.246Z,14.8
2022-11-01T19:14:26.015Z,14.8
2022-11-01T19:16:30.306Z,14.8
2022-11-01T19:18:31.444Z,14.8
2022-11-01T19:20:32.562Z,14.7
2022-11-01T19:23:00.626Z,14.7
2022-11-01T19:25:01.760Z,14.7
2022-11-01T19:27:03.035Z,14.7
2022-11-01T19:29:07.174Z,14.6
2022-11-01T19:31:08.317Z,14.6
2022-11-01T19:33:09.423Z,14.6
2022-11-01T19:35:10.566Z,14.6
2022-11-01T19:37:11.698Z,14.6
2022-11-01T19:39:12.820Z,14.6
2022-11-01T19:41:13.964Z,14.6
2022-11-01T19:43:18.247Z,14.6
2022-11-01T19:45:19.392Z,14.6
2022-11-01T19:47:20.499Z,14.6
2022-11-01T19:49:21.637Z,14.6
2022-11-01T19:51:22.785Z,14.5
2022-11-01T19:53:23.937Z,14.5
2022-11-01T19:55:25.059Z,14.5
2022-11-01T19:57:29.450Z,14.6
2022-11-01T19:59:30.488Z,14.6
2022-11-01T20:01:31.843Z,14.5
2022-11-01T20:03:32.746Z,14.5
2022-11-01T20:05:33.874Z,14.5
2022-11-01T20:07:35.030Z,14.5
2022-11-01T20:09:36.174Z,14.5
2022-11-01T20:11:40.465Z,14.5
2022-11-01T20:13:41.631Z,14.4
2022-11-01T20:15:42.724Z,14.3
2022-11-01T20:16:44.880Z,14.4
2022-11-01T20:18:46.036Z,14.4
2022-11-01T20:20:47.150Z,14.4
2022-11-01T20:22:54.954Z,14.5
2022-11-01T20:24:52.607Z,14.5
2022-11-01T20:26:53.886Z,14.5
2022-11-01T20:28:54.877Z,14.4
2022-11-01T20:30:56.028Z,14.4
2022-11-01T20:32:57.129Z,14.4
2022-11-01T20:34:58.265Z,14.3
2022-11-01T20:37:26.814Z,14.3
2022-11-01T20:39:03.756Z,14.2
2022-11-01T20:41:04.870Z,14.2
2022-11-01T20:43:06.408Z,14.1
2022-11-01T20:45:07.128Z,14.1
2022-11-01T20:51:10.592Z,14
2022-11-01T20:53:14.911Z,14
2022-11-01T20:55:16.046Z,14.1
2022-11-01T20:57:27.468Z,14.1
2022-11-01T20:59:21.266Z,14.1
2022-11-01T21:01:19.615Z,14.1
2022-11-01T21:03:20.607Z,14
2022-11-01T21:05:21.726Z,14.1
2022-11-01T21:07:26.075Z,14.1
2022-11-01T21:09:27.206Z,14
2022-11-01T21:11:28.340Z,14.1
2022-11-01T21:12:30.483Z,14.1
2022-11-01T21:14:31.614Z,14.1
2022-11-01T21:16:32.775Z,14
2022-11-01T21:22:39.346Z,14
2022-11-01T21:24:40.479Z,13.9
2022-11-01T21:26:41.799Z,13.6
2022-11-01T21:28:42.743Z,13.3
2022-11-01T21:30:43.910Z,13.3
2022-11-01T21:32:45.493Z,13.3
2022-11-01T21:34:49.334Z,13.3
2022-11-01T21:36:50.501Z,13.3
2022-11-01T21:38:51.629Z,13.5
2022-11-01T21:40:52.872Z,13.6
2022-11-01T21:42:54.155Z,13.7
2022-11-01T21:44:55.383Z,13.7
2022-11-01T21:46:56.512Z,13.6
2022-11-01T21:49:00.912Z,13.6
2022-11-01T21:51:02.056Z,13.6
2022-11-01T21:53:03.447Z,13.7
2022-11-01T22:01:08.214Z,13.9
2022-11-01T22:03:12.577Z,13.9
2022-11-01T22:05:13.714Z,13.9
2022-11-01T22:07:14.970Z,13.9
2022-11-01T22:14:20.680Z,13.9
2022-11-01T22:16:25.086Z,14
2022-11-01T22:22:28.556Z,14
2022-11-01T22:24:29.703Z,13.9
2022-11-01T22:26:30.840Z,13.9
2022-11-01T22:28:32.077Z,13.8
2022-11-01T22:30:36.498Z,13.8
2022-11-01T22:32:37.760Z,13.8
2022-11-01T22:34:38.919Z,13.7
2022-11-01T22:36:40.165Z,13.6
2022-11-01T22:38:41.287Z,13.4
2022-11-01T22:40:42.454Z,12.8
2022-11-01T22:42:43.584Z,12.6
2022-11-01T22:44:47.927Z,12.4
2022-11-01T22:46:52.322Z,12.3
2022-11-01T22:48:50.224Z,12.1
2022-11-01T22:50:51.474Z,12
2022-11-01T22:52:52.645Z,11.9
2022-11-01T22:54:53.885Z,11.8
2022-11-01T22:56:55.132Z,11.8
2022-11-01T22:58:59.674Z,11.8
2022-11-01T23:01:01.004Z,11.8
2022-11-01T23:03:02.531Z,11.7
2022-11-01T23:05:30.522Z,11.7
2022-11-01T23:07:31.783Z,11.7
2022-11-01T23:09:33.045Z,11.7
2022-11-01T23:11:37.567Z,11.8
2022-11-01T23:13:38.823Z,11.8
2022-11-01T23:15:40.063Z,11.8
2022-11-01T23:17:41.326Z,11.8
2022-11-01T23:19:42.597Z,11.8
2022-11-01T23:21:43.833Z,11.8
2022-11-01T23:23:45.105Z,11.8
2022-11-01T23:25:49.623Z,11.8
2022-11-01T23:27:50.862Z,11.8
2022-11-01T23:29:52.131Z,11.8
2022-11-01T23:31:53.377Z,11.8
2022-11-01T23:33:54.621Z,11.8
2022-11-01T23:35:55.842Z,11.8
2022-11-01T23:37:57.112Z,11.8
2022-11-01T23:40:01.628Z,11.8
2022-11-01T23:42:02.903Z,11.8
2022-11-01T23:44:04.137Z,11.8
2022-11-01T23:46:05.394Z,11.7
2022-11-01T23:48:06.608Z,11.7
2022-11-01T23:50:09.416Z,11.8
2022-11-01T23:52:10.630Z,11.8
2022-11-01T23:54:15.115Z,11.8
2022-11-01T23:56:16.416Z,11.9
2022-11-01T23:58:17.710Z,11.9
2022-11-01T23:59:19.897Z,11.9
